createdAt,value
2017-05-21T00:00:05.473Z,927.03
2017-05-21T00:00:23.748Z,927.03
2017-05-21T00:00:43.054Z,927.06
2017-05-21T00:01:02.356Z,927.03
2017-05-21T00:01:21.831Z,926.99
2017-05-21T00:01:39.724Z,926.99
2017-05-21T00:01:58.488Z,926.98
2017-05-21T00:02:16.693Z,926.98
2017-05-21T00:02:35.964Z,926.94
2017-05-21T00:02:55.285Z,926.95
2017-05-21T00:03:14.295Z,926.95
2017-05-21T00:03:33.050Z,926.98
2017-05-21T00:03:50.764Z,926.96
2017-05-21T00:04:10.068Z,926.97
2017-05-21T00:04:28.898Z,926.95
2017-05-21T00:04:47.781Z,926.93
2017-05-21T00:05:07.076Z,926.95
2017-05-21T00:05:25.347Z,926.93
2017-05-21T00:05:43.096Z,926.96
2017-05-21T00:06:01.867Z,926.97
2017-05-21T00:06:20.667Z,926.94
2017-05-21T00:06:39.955Z,926.93
2017-05-21T00:06:59.210Z,926.94
2017-05-21T00:07:18.006Z,927
2017-05-21T00:07:36.778Z,926.98
2017-05-21T00:07:56.123Z,926.99
2017-05-21T00:08:14.922Z,927.02
2017-05-21T00:08:33.836Z,927.02
2017-05-21T00:08:53.208Z,927.01
2017-05-21T00:09:12.510Z,927.05
2017-05-21T00:09:31.735Z,927.03
2017-05-21T00:09:51.006Z,927.05
2017-05-21T00:10:10.366Z,927.06
2017-05-21T00:10:29.642Z,927.08
2017-05-21T00:10:48.889Z,927.05
2017-05-21T00:11:07.654Z,927.04
2017-05-21T00:11:25.892Z,927.08
2017-05-21T00:11:43.629Z,927.07
2017-05-21T00:12:03.015Z,927.06
2017-05-21T00:12:22.544Z,927.07
2017-05-21T00:12:40.767Z,927.07
2017-05-21T00:13:00.081Z,927.06
2017-05-21T00:13:18.839Z,927.08
2017-05-21T00:13:37.631Z,927.07
2017-05-21T00:13:56.385Z,927.05
2017-05-21T00:14:14.642Z,927.09
2017-05-21T00:14:33.958Z,927.1
2017-05-21T00:14:53.321Z,927.1
2017-05-21T00:15:12.143Z,927.07
2017-05-21T00:15:31.028Z,927.08
2017-05-21T00:15:50.226Z,927.07
2017-05-21T00:16:09.505Z,927.1
2017-05-21T00:16:28.254Z,927.09
2017-05-21T00:16:47.028Z,927.08
2017-05-21T00:17:05.786Z,927.09
2017-05-21T00:17:24.577Z,927.11
2017-05-21T00:17:43.334Z,927.12
2017-05-21T00:18:02.102Z,927.11
2017-05-21T00:18:20.366Z,927.11
2017-05-21T00:18:39.224Z,927.15
2017-05-21T00:18:58.525Z,927.16
2017-05-21T00:19:17.318Z,927.14
2017-05-21T00:19:36.081Z,927.12
2017-05-21T00:19:55.351Z,927.1
2017-05-21T00:20:14.621Z,927.1
2017-05-21T00:20:33.931Z,927.13
2017-05-21T00:20:52.207Z,927.12
2017-05-21T00:21:10.979Z,927.15
2017-05-21T00:21:29.291Z,927.1
2017-05-21T00:21:47.557Z,927.07
2017-05-21T00:22:06.833Z,927.08
2017-05-21T00:22:26.094Z,927.06
2017-05-21T00:22:44.336Z,927.07
2017-05-21T00:23:03.643Z,927.1
2017-05-21T00:23:22.404Z,927.06
2017-05-21T00:23:41.004Z,927.09
2017-05-21T00:24:00.281Z,927.06
2017-05-21T00:24:18.560Z,927.08
2017-05-21T00:24:37.895Z,927.08
2017-05-21T00:24:56.164Z,927.11
2017-05-21T00:25:14.610Z,927.08
2017-05-21T00:25:33.891Z,927.07
2017-05-21T00:25:53.266Z,927.07
2017-05-21T00:26:13.223Z,927.09
2017-05-21T00:26:32.297Z,927.08
2017-05-21T00:26:51.766Z,927.12
2017-05-21T00:27:11.091Z,927.09
2017-05-21T00:27:30.369Z,927.1
2017-05-21T00:27:49.675Z,927.09
2017-05-21T00:28:08.961Z,927.09
2017-05-21T00:28:27.741Z,927.1
2017-05-21T00:28:46.505Z,927.1
2017-05-21T00:29:05.737Z,927.16
2017-05-21T00:29:24.977Z,927.17
2017-05-21T00:29:44.293Z,927.14
2017-05-21T00:30:03.606Z,927.19
2017-05-21T00:30:22.460Z,927.18
2017-05-21T00:30:41.690Z,927.18
2017-05-21T00:31:01.552Z,927.15
2017-05-21T00:31:20.916Z,927.22
2017-05-21T00:31:39.503Z,927.2
2017-05-21T00:31:57.257Z,927.16
2017-05-21T00:32:16.024Z,927.16
2017-05-21T00:32:34.304Z,927.15
2017-05-21T00:32:53.084Z,927.15
2017-05-21T00:33:11.879Z,927.14
2017-05-21T00:33:30.122Z,927.17
2017-05-21T00:33:48.868Z,927.17
2017-05-21T00:34:07.757Z,927.13
2017-05-21T00:34:26.470Z,927.16
2017-05-21T00:34:44.899Z,927.13
2017-05-21T00:35:03.650Z,927.11
2017-05-21T00:35:22.931Z,927.16
2017-05-21T00:35:42.201Z,927.15
2017-05-21T00:36:01.482Z,927.18
2017-05-21T00:36:19.851Z,927.17
2017-05-21T00:36:38.706Z,927.19
2017-05-21T00:36:58.228Z,927.15
2017-05-21T00:37:17.542Z,927.13
2017-05-21T00:37:36.819Z,927.16
2017-05-21T00:37:55.619Z,927.13
2017-05-21T00:38:14.405Z,927.18
2017-05-21T00:38:33.208Z,927.17
2017-05-21T00:38:52.090Z,927.19
2017-05-21T00:39:10.888Z,927.13
2017-05-21T00:39:29.206Z,927.18
2017-05-21T00:39:48.536Z,927.18
2017-05-21T00:40:07.807Z,927.19
2017-05-21T00:40:26.558Z,927.18
2017-05-21T00:40:44.303Z,927.19
2017-05-21T00:41:03.128Z,927.18
2017-05-21T00:41:21.388Z,927.13
2017-05-21T00:41:40.172Z,927.17
2017-05-21T00:41:59.472Z,927.14
2017-05-21T00:42:18.305Z,927.17
2017-05-21T00:42:37.602Z,927.16
2017-05-21T00:42:56.879Z,927.17
2017-05-21T00:43:16.140Z,927.15
2017-05-21T00:43:34.403Z,927.13
2017-05-21T00:43:52.776Z,927.21
2017-05-21T00:44:11.594Z,927.17
2017-05-21T00:44:30.373Z,927.19
2017-05-21T00:44:49.148Z,927.17
2017-05-21T00:45:07.915Z,927.17
2017-05-21T00:45:26.665Z,927.15
2017-05-21T00:45:44.422Z,927.16
2017-05-21T00:46:03.876Z,927.1
2017-05-21T00:46:22.428Z,927.12
2017-05-21T00:46:42.344Z,927.1
2017-05-21T00:47:02.279Z,927.09
2017-05-21T00:47:20.798Z,927.06
2017-05-21T00:47:40.121Z,927.1
2017-05-21T00:47:59.415Z,927.06
2017-05-21T00:48:18.182Z,927.06
2017-05-21T00:48:37.015Z,927.05
2017-05-21T00:48:55.922Z,927.01
2017-05-21T00:49:14.724Z,927.04
2017-05-21T00:49:33.528Z,926.99
2017-05-21T00:49:52.282Z,926.99
2017-05-21T00:50:11.094Z,926.97
2017-05-21T00:50:28.857Z,926.94
2017-05-21T00:50:47.406Z,926.96
2017-05-21T00:51:06.868Z,926.98
2017-05-21T00:51:26.142Z,926.97
2017-05-21T00:51:44.880Z,926.94
2017-05-21T00:52:04.169Z,926.97
2017-05-21T00:52:23.426Z,926.96
2017-05-21T00:52:42.215Z,926.94
2017-05-21T00:53:01.496Z,926.94
2017-05-21T00:53:19.788Z,926.95
2017-05-21T00:53:39.147Z,926.94
2017-05-21T00:53:58.955Z,926.96
2017-05-21T00:54:19.024Z,926.93
2017-05-21T00:54:37.977Z,926.96
2017-05-21T00:54:56.846Z,926.95
2017-05-21T00:55:15.137Z,926.97
2017-05-21T00:55:33.920Z,926.99
2017-05-21T00:55:53.315Z,926.96
2017-05-21T00:56:12.313Z,926.99
2017-05-21T00:56:30.658Z,926.98
2017-05-21T00:56:49.213Z,926.98
2017-05-21T00:57:09.433Z,926.99
2017-05-21T00:57:27.863Z,926.97
2017-05-21T00:57:46.131Z,926.99
2017-05-21T00:58:05.474Z,927.01
2017-05-21T00:58:24.780Z,927.03
2017-05-21T00:58:43.545Z,927
2017-05-21T00:59:02.328Z,927.01
2017-05-21T00:59:20.794Z,927.01
2017-05-21T00:59:40.278Z,926.98
2017-05-21T00:59:59.798Z,926.98
2017-05-21T01:00:19.046Z,927
2017-05-21T01:00:37.381Z,927.02
2017-05-21T01:00:56.652Z,927.02
2017-05-21T01:01:14.764Z,927.01
2017-05-21T01:01:34.800Z,926.97
2017-05-21T01:01:54.312Z,927.03
2017-05-21T01:02:13.837Z,927.01
2017-05-21T01:02:32.637Z,927.03
2017-05-21T01:02:51.400Z,927
2017-05-21T01:03:10.704Z,927
2017-05-21T01:03:28.774Z,927
2017-05-21T01:03:47.864Z,927.03
2017-05-21T01:04:07.403Z,927
2017-05-21T01:04:25.675Z,927
2017-05-21T01:04:43.968Z,926.99
2017-05-21T01:05:02.826Z,927.01
2017-05-21T01:05:21.621Z,927.04
2017-05-21T01:05:40.411Z,926.99
2017-05-21T01:05:59.246Z,927.01
2017-05-21T01:06:18.202Z,927.02
2017-05-21T01:06:37.035Z,927.03
2017-05-21T01:06:56.284Z,927
2017-05-21T01:07:14.567Z,927.02
2017-05-21T01:07:33.841Z,927.01
2017-05-21T01:07:53.148Z,927.01
2017-05-21T01:08:11.926Z,927
2017-05-21T01:08:30.665Z,927.01
2017-05-21T01:08:49.408Z,926.98
2017-05-21T01:09:08.703Z,927.03
2017-05-21T01:09:27.505Z,926.99
2017-05-21T01:09:46.304Z,926.98
2017-05-21T01:10:05.570Z,926.99
2017-05-21T01:10:23.846Z,927
2017-05-21T01:10:42.654Z,927.01
2017-05-21T01:11:01.440Z,926.98
2017-05-21T01:11:19.699Z,926.98
2017-05-21T01:11:37.946Z,926.94
2017-05-21T01:11:56.731Z,926.97
2017-05-21T01:12:14.967Z,926.95
2017-05-21T01:12:34.269Z,926.95
2017-05-21T01:12:53.003Z,926.95
2017-05-21T01:13:11.771Z,926.98
2017-05-21T01:13:30.025Z,926.96
2017-05-21T01:13:49.287Z,926.96
2017-05-21T01:14:08.584Z,926.96
2017-05-21T01:14:26.886Z,926.95
2017-05-21T01:14:46.183Z,926.93
2017-05-21T01:15:05.491Z,926.92
2017-05-21T01:15:24.793Z,926.94
2017-05-21T01:15:43.857Z,926.97
2017-05-21T01:16:03.172Z,926.94
2017-05-21T01:16:21.954Z,926.96
2017-05-21T01:16:40.728Z,926.98
2017-05-21T01:17:00.029Z,926.99
2017-05-21T01:17:18.281Z,927.03
2017-05-21T01:17:37.043Z,927.01
2017-05-21T01:17:56.336Z,927
2017-05-21T01:18:15.114Z,926.99
2017-05-21T01:18:34.519Z,927.04
2017-05-21T01:18:52.782Z,927.04
2017-05-21T01:19:12.042Z,927.05
2017-05-21T01:19:30.921Z,927.06
2017-05-21T01:19:50.190Z,927.05
2017-05-21T01:20:09.521Z,927.04
2017-05-21T01:20:27.785Z,927.11
2017-05-21T01:20:46.547Z,927.07
2017-05-21T01:21:05.843Z,927.09
2017-05-21T01:21:24.579Z,927.03
2017-05-21T01:21:42.825Z,927.05
2017-05-21T01:22:01.616Z,927.05
2017-05-21T01:22:19.868Z,927.06
2017-05-21T01:22:39.149Z,927.08
2017-05-21T01:22:57.884Z,927.07
2017-05-21T01:23:17.161Z,927.03
2017-05-21T01:23:35.972Z,927.04
2017-05-21T01:23:54.776Z,927.03
2017-05-21T01:24:14.037Z,927.06
2017-05-21T01:24:32.295Z,927.07
2017-05-21T01:24:51.554Z,927.03
2017-05-21T01:25:10.828Z,927.02
2017-05-21T01:25:29.367Z,927.02
2017-05-21T01:25:48.698Z,927.01
2017-05-21T01:26:08.426Z,926.99
2017-05-21T01:26:27.685Z,926.98
2017-05-21T01:26:46.496Z,926.95
2017-05-21T01:27:05.754Z,926.97
2017-05-21T01:27:23.465Z,927.02
2017-05-21T01:27:42.219Z,927
2017-05-21T01:28:01.470Z,927
2017-05-21T01:28:19.720Z,926.97
2017-05-21T01:28:36.958Z,926.98
2017-05-21T01:28:56.265Z,926.94
2017-05-21T01:29:15.534Z,926.95
2017-05-21T01:29:34.819Z,926.96
2017-05-21T01:29:54.080Z,926.92
2017-05-21T01:30:13.369Z,926.94
2017-05-21T01:30:32.142Z,926.89
2017-05-21T01:30:51.410Z,926.89
2017-05-21T01:31:10.692Z,926.91
2017-05-21T01:31:28.977Z,926.88
2017-05-21T01:31:47.765Z,926.85
2017-05-21T01:32:07.013Z,926.87
2017-05-21T01:32:26.264Z,926.83
2017-05-21T01:32:44.512Z,926.8
2017-05-21T01:33:03.770Z,926.82
2017-05-21T01:33:22.534Z,926.8
2017-05-21T01:33:40.046Z,926.77
2017-05-21T01:33:58.805Z,926.7
2017-05-21T01:34:18.073Z,926.67
2017-05-21T01:34:36.855Z,926.78
2017-05-21T01:34:56.120Z,926.75
2017-05-21T01:35:14.914Z,926.78
2017-05-21T01:35:34.730Z,926.77
2017-05-21T01:35:53.835Z,926.76
2017-05-21T01:36:13.245Z,926.76
2017-05-21T01:36:31.537Z,926.78
2017-05-21T01:36:50.309Z,926.81
2017-05-21T01:37:09.339Z,926.8
2017-05-21T01:37:27.066Z,926.77
2017-05-21T01:37:45.303Z,926.74
2017-05-21T01:38:04.018Z,926.77
2017-05-21T01:38:23.279Z,926.77
2017-05-21T01:38:42.145Z,926.78
2017-05-21T01:39:00.907Z,926.75
2017-05-21T01:39:19.682Z,926.75
2017-05-21T01:39:38.939Z,926.74
2017-05-21T01:39:58.190Z,926.73
2017-05-21T01:40:16.947Z,926.74
2017-05-21T01:40:35.187Z,926.72
2017-05-21T01:40:54.488Z,926.74
2017-05-21T01:41:13.795Z,926.71
2017-05-21T01:41:33.051Z,926.71
2017-05-21T01:41:51.803Z,926.74
2017-05-21T01:42:11.108Z,926.72
2017-05-21T01:42:29.414Z,926.72
2017-05-21T01:42:48.230Z,926.7
2017-05-21T01:43:07.535Z,926.68
2017-05-21T01:43:26.835Z,926.7
2017-05-21T01:43:45.160Z,926.68
2017-05-21T01:44:04.010Z,926.67
2017-05-21T01:44:21.964Z,926.69
2017-05-21T01:44:40.221Z,926.65
2017-05-21T01:44:59.430Z,926.66
2017-05-21T01:45:17.814Z,926.68
2017-05-21T01:45:37.387Z,926.68
2017-05-21T01:45:56.132Z,926.69
2017-05-21T01:46:14.422Z,926.72
2017-05-21T01:46:33.671Z,926.74
2017-05-21T01:46:51.963Z,926.76
2017-05-21T01:47:10.235Z,926.79
2017-05-21T01:47:28.501Z,926.83
2017-05-21T01:47:46.225Z,926.82
2017-05-21T01:48:04.984Z,926.86
2017-05-21T01:48:23.768Z,926.86
2017-05-21T01:48:42.534Z,926.92
2017-05-21T01:49:01.285Z,926.89
2017-05-21T01:49:20.030Z,926.86
2017-05-21T01:49:37.805Z,926.91
2017-05-21T01:49:56.082Z,926.87
2017-05-21T01:50:14.868Z,926.89
2017-05-21T01:50:34.381Z,926.88
2017-05-21T01:50:53.136Z,926.93
2017-05-21T01:51:12.457Z,926.93
2017-05-21T01:51:31.241Z,926.92
2017-05-21T01:51:50.573Z,926.92
2017-05-21T01:52:10.266Z,926.9
2017-05-21T01:52:30.465Z,926.89
2017-05-21T01:52:49.281Z,926.9
2017-05-21T01:53:08.554Z,926.87
2017-05-21T01:53:27.842Z,926.89
2017-05-21T01:53:46.129Z,926.93
2017-05-21T01:54:05.410Z,926.87
2017-05-21T01:54:23.687Z,926.85
2017-05-21T01:54:43.106Z,926.83
2017-05-21T01:55:02.457Z,926.83
2017-05-21T01:55:21.812Z,926.85
2017-05-21T01:55:39.536Z,926.89
2017-05-21T01:55:58.950Z,926.9
2017-05-21T01:56:18.063Z,926.88
2017-05-21T01:56:36.313Z,926.84
2017-05-21T01:56:55.099Z,926.87
2017-05-21T01:57:14.388Z,926.9
2017-05-21T01:57:33.143Z,926.87
2017-05-21T01:57:51.918Z,926.86
2017-05-21T01:58:11.216Z,926.86
2017-05-21T01:58:31.389Z,926.83
2017-05-21T01:58:50.753Z,926.89
2017-05-21T01:59:10.528Z,926.86
2017-05-21T01:59:29.655Z,926.88
2017-05-21T01:59:48.960Z,926.92
2017-05-21T02:00:08.227Z,926.87
2017-05-21T02:00:26.487Z,926.87
2017-05-21T02:00:43.778Z,926.86
2017-05-21T02:01:03.064Z,926.87
2017-05-21T02:01:22.329Z,926.78
2017-05-21T02:01:41.094Z,926.74
2017-05-21T02:01:59.854Z,926.82
2017-05-21T02:02:18.083Z,926.76
2017-05-21T02:02:37.360Z,926.75
2017-05-21T02:02:56.617Z,926.76
2017-05-21T02:03:15.892Z,926.75
2017-05-21T02:03:34.124Z,926.76
2017-05-21T02:03:53.634Z,926.75
2017-05-21T02:04:12.391Z,926.73
2017-05-21T02:04:31.187Z,926.71
2017-05-21T02:04:49.974Z,926.74
2017-05-21T02:05:08.755Z,926.71
2017-05-21T02:05:27.984Z,926.75
2017-05-21T02:05:46.710Z,926.75
2017-05-21T02:06:06.032Z,926.71
2017-05-21T02:06:24.796Z,926.73
2017-05-21T02:06:43.545Z,926.67
2017-05-21T02:07:02.283Z,926.66
2017-05-21T02:07:21.085Z,926.7
2017-05-21T02:07:40.353Z,926.72
2017-05-21T02:07:59.082Z,926.71
2017-05-21T02:08:17.863Z,926.68
2017-05-21T02:08:37.158Z,926.67
2017-05-21T02:08:54.905Z,926.62
2017-05-21T02:09:14.240Z,926.6
2017-05-21T02:09:33.027Z,926.66
2017-05-21T02:09:51.288Z,926.68
2017-05-21T02:10:10.067Z,926.69
2017-05-21T02:10:28.858Z,926.68
2017-05-21T02:10:48.157Z,926.65
2017-05-21T02:11:07.446Z,926.67
2017-05-21T02:11:26.203Z,926.6
2017-05-21T02:11:44.453Z,926.66
2017-05-21T02:12:03.757Z,926.67
2017-05-21T02:12:22.562Z,926.7
2017-05-21T02:12:40.834Z,926.7
2017-05-21T02:13:00.134Z,926.66
2017-05-21T02:13:18.951Z,926.66
2017-05-21T02:13:37.193Z,926.66
2017-05-21T02:13:56.466Z,926.68
2017-05-21T02:14:15.800Z,926.69
2017-05-21T02:14:35.232Z,926.67
2017-05-21T02:14:54.046Z,926.72
2017-05-21T02:15:12.830Z,926.73
2017-05-21T02:15:31.111Z,926.74
2017-05-21T02:15:50.376Z,926.75
2017-05-21T02:16:09.640Z,926.67
2017-05-21T02:16:28.911Z,926.68
2017-05-21T02:16:48.187Z,926.71
2017-05-21T02:17:07.457Z,926.65
2017-05-21T02:17:26.693Z,926.71
2017-05-21T02:17:45.935Z,926.68
2017-05-21T02:18:05.288Z,926.7
2017-05-21T02:18:22.991Z,926.65
2017-05-21T02:18:41.800Z,926.73
2017-05-21T02:19:01.128Z,926.73
2017-05-21T02:19:19.359Z,926.73
2017-05-21T02:19:37.622Z,926.76
2017-05-21T02:19:55.363Z,926.73
2017-05-21T02:20:14.639Z,926.75
2017-05-21T02:20:33.397Z,926.76
2017-05-21T02:20:52.167Z,926.79
2017-05-21T02:21:11.460Z,926.73
2017-05-21T02:21:30.953Z,926.8
2017-05-21T02:21:50.444Z,926.81
2017-05-21T02:22:09.717Z,926.82
2017-05-21T02:22:27.914Z,926.78
2017-05-21T02:22:46.209Z,926.75
2017-05-21T02:23:05.522Z,926.78
2017-05-21T02:23:23.789Z,926.78
2017-05-21T02:23:42.675Z,926.79
2017-05-21T02:24:01.947Z,926.86
2017-05-21T02:24:21.286Z,926.81
2017-05-21T02:24:40.580Z,926.85
2017-05-21T02:24:59.357Z,926.81
2017-05-21T02:25:18.630Z,926.83
2017-05-21T02:25:37.400Z,926.84
2017-05-21T02:25:56.196Z,926.86
2017-05-21T02:26:15.496Z,926.87
2017-05-21T02:26:34.264Z,926.87
2017-05-21T02:26:53.066Z,926.87
2017-05-21T02:27:12.370Z,926.86
2017-05-21T02:27:31.123Z,926.86
2017-05-21T02:27:50.377Z,926.85
2017-05-21T02:28:09.682Z,926.86
2017-05-21T02:28:28.953Z,926.9
2017-05-21T02:28:48.252Z,926.84
2017-05-21T02:29:07.510Z,926.86
2017-05-21T02:29:25.780Z,926.87
2017-05-21T02:29:44.542Z,926.9
2017-05-21T02:30:03.839Z,926.94
2017-05-21T02:30:22.079Z,926.92
2017-05-21T02:30:40.303Z,926.94
2017-05-21T02:30:59.045Z,926.93
2017-05-21T02:31:17.775Z,926.97
2017-05-21T02:31:37.055Z,926.96
2017-05-21T02:31:56.309Z,926.96
2017-05-21T02:32:15.111Z,926.98
2017-05-21T02:32:34.190Z,927.02
2017-05-21T02:32:53.687Z,927.01
2017-05-21T02:33:12.994Z,927
2017-05-21T02:33:31.736Z,926.97
2017-05-21T02:33:50.488Z,926.98
2017-05-21T02:34:09.790Z,927.01
2017-05-21T02:34:26.525Z,927.08
2017-05-21T02:34:45.337Z,927.01
2017-05-21T02:35:04.088Z,927.01
2017-05-21T02:35:23.345Z,927.03
2017-05-21T02:35:42.112Z,927.04
2017-05-21T02:36:00.881Z,926.98
2017-05-21T02:36:20.154Z,926.97
2017-05-21T02:36:38.591Z,926.92
2017-05-21T02:36:57.369Z,927.01
2017-05-21T02:37:16.640Z,927.01
2017-05-21T02:37:34.970Z,926.98
2017-05-21T02:37:54.255Z,926.98
2017-05-21T02:38:13.558Z,927.03
2017-05-21T02:38:32.331Z,927.05
2017-05-21T02:38:50.725Z,927.05
2017-05-21T02:39:10.031Z,926.98
2017-05-21T02:39:28.795Z,926.95
2017-05-21T02:39:47.030Z,926.99
2017-05-21T02:40:06.329Z,926.99
2017-05-21T02:40:25.666Z,926.99
2017-05-21T02:40:43.932Z,926.98
2017-05-21T02:41:03.292Z,926.97
2017-05-21T02:41:22.061Z,927.06
2017-05-21T02:41:40.790Z,927
2017-05-21T02:42:00.081Z,926.98
2017-05-21T02:42:19.351Z,926.92
2017-05-21T02:42:37.055Z,926.9
2017-05-21T02:42:56.267Z,926.95
2017-05-21T02:43:15.566Z,926.94
2017-05-21T02:43:33.779Z,926.88
2017-05-21T02:43:52.762Z,926.89
2017-05-21T02:44:12.081Z,926.9
2017-05-21T02:44:30.332Z,926.95
2017-05-21T02:44:49.588Z,926.94
2017-05-21T02:45:08.872Z,926.84
2017-05-21T02:45:28.175Z,926.87
2017-05-21T02:45:47.007Z,926.9
2017-05-21T02:46:05.768Z,926.94
2017-05-21T02:46:24.531Z,926.89
2017-05-21T02:46:42.784Z,926.98
2017-05-21T02:47:01.603Z,926.89
2017-05-21T02:47:19.890Z,926.92
2017-05-21T02:47:37.650Z,926.79
2017-05-21T02:47:55.423Z,926.72
2017-05-21T02:48:14.727Z,926.83
2017-05-21T02:48:33.994Z,926.81
2017-05-21T02:48:53.267Z,926.93
2017-05-21T02:49:12.547Z,926.91
2017-05-21T02:49:31.335Z,926.91
2017-05-21T02:49:50.117Z,926.9
2017-05-21T02:50:09.392Z,926.87
2017-05-21T02:50:28.139Z,926.77
2017-05-21T02:50:46.937Z,926.76
2017-05-21T02:51:06.276Z,926.89
2017-05-21T02:51:25.084Z,926.89
2017-05-21T02:51:43.341Z,926.81
2017-05-21T02:52:02.597Z,926.83
2017-05-21T02:52:21.393Z,926.89
2017-05-21T02:52:40.157Z,926.92
2017-05-21T02:52:59.430Z,926.88
2017-05-21T02:53:18.218Z,926.89
2017-05-21T02:53:37.016Z,926.84
2017-05-21T02:53:56.465Z,926.82
2017-05-21T02:54:15.224Z,926.89
2017-05-21T02:54:34.068Z,926.79
2017-05-21T02:54:53.846Z,926.83
2017-05-21T02:55:12.723Z,926.88
2017-05-21T02:55:31.015Z,926.81
2017-05-21T02:55:49.792Z,926.75
2017-05-21T02:56:09.075Z,926.77
2017-05-21T02:56:27.847Z,926.83
2017-05-21T02:56:46.618Z,926.63
2017-05-21T02:57:05.408Z,926.83
2017-05-21T02:57:24.719Z,926.79
2017-05-21T02:57:43.995Z,926.6
2017-05-21T02:58:03.269Z,926.82
2017-05-21T02:58:22.043Z,926.63
2017-05-21T02:58:41.417Z,926.78
2017-05-21T02:59:00.712Z,926.79
2017-05-21T02:59:18.981Z,926.79
2017-05-21T02:59:37.547Z,926.71
2017-05-21T02:59:56.850Z,926.77
2017-05-21T03:00:15.632Z,926.72
2017-05-21T03:00:34.904Z,926.81
2017-05-21T03:00:54.181Z,926.79
2017-05-21T03:01:13.473Z,926.79
2017-05-21T03:01:31.758Z,926.77
2017-05-21T03:01:51.144Z,926.79
2017-05-21T03:02:10.426Z,926.78
2017-05-21T03:02:29.175Z,926.75
2017-05-21T03:02:48.412Z,926.74
2017-05-21T03:03:06.632Z,926.77
2017-05-21T03:03:25.389Z,926.76
2017-05-21T03:03:43.311Z,926.73
2017-05-21T03:04:02.593Z,926.69
2017-05-21T03:04:21.883Z,926.66
2017-05-21T03:04:40.118Z,926.72
2017-05-21T03:04:58.372Z,926.59
2017-05-21T03:05:17.640Z,926.62
2017-05-21T03:05:35.897Z,926.65
2017-05-21T03:05:54.670Z,926.68
2017-05-21T03:06:13.440Z,926.75
2017-05-21T03:06:32.180Z,926.69
2017-05-21T03:06:50.954Z,926.57
2017-05-21T03:07:09.743Z,926.69
2017-05-21T03:07:28.489Z,926.69
2017-05-21T03:07:46.742Z,926.71
2017-05-21T03:08:05.005Z,926.69
2017-05-21T03:08:23.248Z,926.71
2017-05-21T03:08:41.018Z,926.7
2017-05-21T03:08:59.800Z,926.69
2017-05-21T03:09:18.040Z,926.57
2017-05-21T03:09:37.341Z,926.68
2017-05-21T03:09:56.159Z,926.65
2017-05-21T03:10:14.961Z,926.67
2017-05-21T03:10:34.280Z,926.69
2017-05-21T03:10:53.535Z,926.68
2017-05-21T03:11:13.132Z,926.67
2017-05-21T03:11:31.390Z,926.68
2017-05-21T03:11:50.682Z,926.63
2017-05-21T03:12:09.957Z,926.65
2017-05-21T03:12:29.563Z,926.64
2017-05-21T03:12:48.831Z,926.62
2017-05-21T03:13:08.128Z,926.63
2017-05-21T03:13:26.362Z,926.56
2017-05-21T03:13:45.852Z,926.64
2017-05-21T03:14:05.098Z,926.63
2017-05-21T03:14:22.838Z,926.64
2017-05-21T03:14:42.603Z,926.67
2017-05-21T03:15:00.863Z,926.56
2017-05-21T03:15:20.160Z,926.59
2017-05-21T03:15:39.484Z,926.59
2017-05-21T03:15:58.252Z,926.6
2017-05-21T03:16:17.517Z,926.6
2017-05-21T03:16:36.307Z,926.64
2017-05-21T03:16:55.084Z,926.66
2017-05-21T03:17:14.369Z,926.66
2017-05-21T03:17:33.132Z,926.65
2017-05-21T03:17:51.400Z,926.64
2017-05-21T03:18:10.169Z,926.61
2017-05-21T03:18:28.944Z,926.63
2017-05-21T03:18:47.186Z,926.6
2017-05-21T03:19:06.436Z,926.61
2017-05-21T03:19:24.700Z,926.59
2017-05-21T03:19:43.492Z,926.63
2017-05-21T03:20:02.255Z,926.62
2017-05-21T03:20:21.521Z,926.63
2017-05-21T03:20:41.194Z,926.65
2017-05-21T03:21:00.514Z,926.64
2017-05-21T03:21:19.250Z,926.65
2017-05-21T03:21:37.997Z,926.67
2017-05-21T03:21:56.736Z,926.65
2017-05-21T03:22:16.015Z,926.62
2017-05-21T03:22:34.801Z,926.69
2017-05-21T03:22:53.037Z,926.68
2017-05-21T03:23:11.810Z,926.7
2017-05-21T03:23:30.555Z,926.73
2017-05-21T03:23:48.794Z,926.74
2017-05-21T03:24:08.149Z,926.73
2017-05-21T03:24:26.392Z,926.65
2017-05-21T03:24:45.151Z,926.72
2017-05-21T03:25:04.422Z,926.73
2017-05-21T03:25:23.695Z,926.79
2017-05-21T03:25:42.468Z,926.73
2017-05-21T03:26:01.778Z,926.73
2017-05-21T03:26:20.688Z,926.74
2017-05-21T03:26:40.043Z,926.73
2017-05-21T03:26:58.312Z,926.71
2017-05-21T03:27:17.597Z,926.73
2017-05-21T03:27:36.383Z,926.64
2017-05-21T03:27:55.136Z,926.7
2017-05-21T03:28:13.893Z,926.73
2017-05-21T03:28:32.660Z,926.68
2017-05-21T03:28:51.944Z,926.73
2017-05-21T03:29:10.690Z,926.63
2017-05-21T03:29:29.440Z,926.67
2017-05-21T03:29:48.223Z,926.71
2017-05-21T03:30:07.539Z,926.71
2017-05-21T03:30:25.806Z,926.72
2017-05-21T03:30:44.569Z,926.64
2017-05-21T03:31:03.845Z,926.66
2017-05-21T03:31:22.614Z,926.63
2017-05-21T03:31:41.405Z,926.65
2017-05-21T03:32:00.668Z,926.67
2017-05-21T03:32:18.934Z,926.63
2017-05-21T03:32:37.715Z,926.6
2017-05-21T03:32:57.016Z,926.59
2017-05-21T03:33:16.292Z,926.64
2017-05-21T03:33:35.088Z,926.66
2017-05-21T03:33:54.395Z,926.67
2017-05-21T03:34:13.744Z,926.58
2017-05-21T03:34:32.029Z,926.58
2017-05-21T03:34:51.348Z,926.66
2017-05-21T03:35:10.617Z,926.65
2017-05-21T03:35:29.861Z,926.6
2017-05-21T03:35:49.155Z,926.64
2017-05-21T03:36:07.870Z,926.47
2017-05-21T03:36:26.629Z,926.47
2017-05-21T03:36:44.896Z,926.59
2017-05-21T03:37:04.149Z,926.58
2017-05-21T03:37:23.184Z,926.66
2017-05-21T03:37:42.013Z,926.6
2017-05-21T03:38:01.367Z,926.64
2017-05-21T03:38:19.649Z,926.68
2017-05-21T03:38:39.308Z,926.65
2017-05-21T03:38:58.081Z,926.62
2017-05-21T03:39:16.832Z,926.61
2017-05-21T03:39:35.060Z,926.6
2017-05-21T03:39:54.364Z,926.64
2017-05-21T03:40:12.652Z,926.65
2017-05-21T03:40:31.922Z,926.65
2017-05-21T03:40:50.709Z,926.71
2017-05-21T03:41:10.036Z,926.66
2017-05-21T03:41:28.771Z,926.67
2017-05-21T03:41:47.528Z,926.63
2017-05-21T03:42:07.622Z,926.63
2017-05-21T03:42:25.344Z,926.6
2017-05-21T03:42:44.696Z,926.64
2017-05-21T03:43:04.036Z,926.67
2017-05-21T03:43:23.332Z,926.61
2017-05-21T03:43:42.177Z,926.69
2017-05-21T03:44:01.417Z,926.64
2017-05-21T03:44:20.176Z,926.62
2017-05-21T03:44:38.959Z,926.61
2017-05-21T03:44:58.189Z,926.63
2017-05-21T03:45:16.943Z,926.53
2017-05-21T03:45:35.170Z,926.65
2017-05-21T03:45:53.940Z,926.64
2017-05-21T03:46:13.206Z,926.59
2017-05-21T03:46:31.939Z,926.61
2017-05-21T03:46:49.707Z,926.66
2017-05-21T03:47:08.966Z,926.5
2017-05-21T03:47:27.754Z,926.64
2017-05-21T03:47:46.532Z,926.64
2017-05-21T03:48:05.297Z,926.54
2017-05-21T03:48:24.028Z,926.58
2017-05-21T03:48:42.828Z,926.61
2017-05-21T03:49:02.448Z,926.67
2017-05-21T03:49:21.732Z,926.64
2017-05-21T03:49:41.012Z,926.61
2017-05-21T03:49:59.250Z,926.64
2017-05-21T03:50:17.514Z,926.65
2017-05-21T03:50:34.806Z,926.57
2017-05-21T03:50:53.612Z,926.59
2017-05-21T03:51:12.473Z,926.47
2017-05-21T03:51:30.695Z,926.62
2017-05-21T03:51:49.976Z,926.59
2017-05-21T03:52:09.239Z,926.58
2017-05-21T03:52:28.555Z,926.67
2017-05-21T03:52:47.298Z,926.65
2017-05-21T03:53:06.607Z,926.68
2017-05-21T03:53:25.887Z,926.69
2017-05-21T03:53:44.225Z,926.69
2017-05-21T03:54:02.974Z,926.7
2017-05-21T03:54:21.378Z,926.64
2017-05-21T03:54:39.669Z,926.75
2017-05-21T03:54:57.920Z,926.68
2017-05-21T03:55:17.214Z,926.66
2017-05-21T03:55:34.949Z,926.67
2017-05-21T03:55:53.719Z,926.73
2017-05-21T03:56:12.949Z,926.71
2017-05-21T03:56:31.211Z,926.65